RJNY  Shizuhama Airport

Add Bookmark

Japan

Status
Operational
Latitude Longitude
34° 48' 46" N 138° 17' 52" E
34.812801 138.298004
Local (DST + 9) UTC (GMT + 9)
Sep 3, 2014 06:17 Sep 2, 2014 21:17
Sunrise-Sunset Local UTC
Begin Civil Twilight 04:53 19:53
Sunrise 05:19 20:19
Sunset 06:12 09:12
End Civil Twilight 06:38 09:38

Current Weather

METAR Observed MVFR
RJNY 012037Z 33002KT 9999 BKN011 SCT230 19/19 Q1013 Mon, Sep 1, 2014 @ 20:37 UTC
(1 Day, 40 Minutes ago)
Marginal Visual Flight Rules
Wind Visibility Clouds Conditions
330° at 2 knots (4 kph) 10 km or more
  • Broken at 1,100' AGL
  • Scattered at 23,000' AGL
  • No significant weather
Temperatures Readings Precipitation
Current Temp 19°C (66°F)
Dewpoint 19°C (66°F)
Humidity 100%
Altimeter 29.91"Hg
Sea Level Pressure 1013mb
Field Elevation 32.81'
None Recorded

Additional weather within a 92.6km radius of RJNY

Map ICAO Location
rjns 10.2km W (259°)
RJAT 76.7km N (043°)

24 Hour Weather History

Loading
-

24 Hour Weather Graphs

Loading
-

CheckWX.com is intended as a tool to help pilots better visualize weather data. It is not intended as a substitute for an official weather briefing obtained from a Flight Service Station. CheckWX.com does not meet the FAA requirements for an official pre-flight weather briefing. Therefore, it's important that pilots still call and obtain an official FSS pre-flight weather briefing.